Time;durP1;ratioP1;P1;durP2;ratioP2;P2;SDS_P1;SDS_P2;PMS_P1;PMS_P2;Temp;Humidity;BMP_temperature;BMP_pressure;BME280_temperature;BME280_humidity;BME280_pressure;Samples;Min_cycle;Max_cycle;Signal;HPM_P1;HPM_P2
2021/06/05 00:01:44;;;;;;;7.10;5.63;;;;;;;14.40;64.86;95628.34;4953386;28;20027;-87
2021/06/05 00:04:10;;;;;;;11.40;5.60;;;;;;;14.34;64.80;95618.84;4969921;28;20030;-87
2021/06/05 00:06:35;;;;;;;12.90;5.22;;;;;;;14.37;64.61;95625.41;4939607;28;20033;-86
2021/06/05 00:09:01;;;;;;;9.20;5.47;;;;;;;14.35;64.50;95630.88;4931729;28;20506;-87
2021/06/05 00:11:28;;;;;;;9.30;5.85;;;;;;;14.38;64.13;95634.84;4956052;28;20406;-87
2021/06/05 00:13:56;;;;;;;12.45;10.32;;;;;;;14.29;65.51;95629.19;4955454;28;20034;-87
2021/06/05 00:16:25;;;;;;;12.68;8.73;;;;;;;14.34;65.19;95634.53;4970467;28;20035;-85
2021/06/05 00:18:51;;;;;;;11.13;5.80;;;;;;;14.30;64.77;95633.41;4936269;28;20065;-86
2021/06/05 00:21:17;;;;;;;8.18;5.63;;;;;;;14.25;64.37;95625.47;4939772;28;20565;-86
2021/06/05 00:23:43;;;;;;;7.68;6.32;;;;;;;14.27;64.47;95633.88;4981547;28;20117;-86
2021/06/05 00:26:09;;;;;;;8.90;6.25;;;;;;;14.28;64.80;95635.44;4939106;28;20041;-85
2021/06/05 00:28:34;;;;;;;13.77;7.70;;;;;;;14.27;65.13;95639.09;4971216;28;20182;-85
2021/06/05 00:33:35;;;;;;;9.07;6.80;;;;;;;14.32;65.00;95630.56;5196263;23;20050;-87
2021/06/05 00:36:01;;;;;;;9.10;5.85;;;;;;;14.31;64.69;95634.97;4975033;28;20037;-85
2021/06/05 00:38:27;;;;;;;6.82;5.95;;;;;;;14.29;64.67;95626.56;4963953;28;20417;-85
2021/06/05 00:40:54;;;;;;;9.60;6.43;;;;;;;14.27;64.30;95633.88;4973833;28;20031;-85
2021/06/05 00:43:24;;;;;;;9.65;6.28;;;;;;;14.25;64.91;95628.06;4959386;28;20041;-85
2021/06/05 00:45:53;;;;;;;8.18;5.93;;;;;;;14.25;65.02;95620.22;4970535;28;20038;-86
2021/06/05 00:48:19;;;;;;;6.63;6.03;;;;;;;14.24;64.23;95626.50;4991987;28;20045;-88
2021/06/05 00:50:44;;;;;;;9.10;6.30;;;;;;;14.19;64.31;95620.38;4949209;28;20066;-87
2021/06/05 00:53:10;;;;;;;15.18;6.57;;;;;;;14.17;64.37;95623.25;4953141;28;20057;-87
2021/06/05 00:55:38;;;;;;;11.70;6.88;;;;;;;14.16;64.73;95626.88;4928154;28;20027;-86
2021/06/05 00:58:03;;;;;;;15.48;6.63;;;;;;;14.10;64.48;95617.34;4930128;28;20035;-86
2021/06/05 01:00:29;;;;;;;8.07;5.95;;;;;;;14.12;64.53;95617.91;4928144;28;20161;-86
2021/06/05 01:03:01;;;;;;;11.48;6.40;;;;;;;14.12;64.58;95629.16;4961633;28;20050;-86
2021/06/05 01:08:22;;;;;;;6.70;6.10;;;;;;;14.02;64.40;95638.66;5099818;23;20050;-86
2021/06/05 01:13:28;;;;;;;20.00;10.52;;;;;;;13.93;64.79;95640.03;5142697;23;20050;-85
2021/06/05 01:15:58;;;;;;;28.00;15.35;;;;;;;13.86;65.02;95642.00;4970849;28;20039;-86
2021/06/05 01:18:31;;;;;;;36.17;15.10;;;;;;;13.85;64.94;95635.97;4972246;28;20078;-87
2021/06/05 01:21:15;;;;;;;;;;;;;;;13.87;64.96;95651.41;4959542;28;20035;-87
2021/06/05 01:24:24;;;;;;;16.92;13.25;;;;;;;13.78;65.07;95651.75;4977118;28;19914;-87
2021/06/05 01:26:56;;;;;;;18.85;12.05;;;;;;;13.72;65.48;95652.69;4991678;28;20042;-86
2021/06/05 01:29:27;;;;;;;12.98;6.78;;;;;;;13.74;65.70;95649.84;4976361;28;20030;-86
2021/06/05 01:31:54;;;;;;;8.82;6.20;;;;;;;13.70;66.44;95644.28;4943254;28;20038;-87
2021/06/05 01:34:20;;;;;;;6.78;6.03;;;;;;;13.71;65.79;95637.25;4962468;23;20110;-87
2021/06/05 01:36:50;;;;;;;13.85;6.78;;;;;;;13.75;66.00;95647.00;4967414;28;20097;-86
2021/06/05 01:39:17;;;;;;;11.73;7.38;;;;;;;13.75;65.85;95647.00;4967171;28;20486;-86
2021/06/05 01:41:42;;;;;;;14.85;7.03;;;;;;;13.75;65.83;95635.75;4936899;28;20038;-86
2021/06/05 01:44:08;;;;;;;9.80;6.85;;;;;;;13.77;65.45;95650.19;4952433;28;20031;-86
2021/06/05 01:46:41;;;;;;;7.15;6.45;;;;;;;13.74;65.72;95648.03;4964183;28;20102;-85
2021/06/05 01:49:06;;;;;;;9.35;5.53;;;;;;;13.76;65.46;95648.59;4974538;28;20102;-86
2021/06/05 01:51:35;;;;;;;9.77;6.78;;;;;;;13.79;65.18;95653.34;4947436;28;20041;-85
2021/06/05 01:54:08;;;;;;;8.55;6.20;;;;;;;13.74;65.06;95640.19;4969773;28;20023;-85
2021/06/05 01:56:40;;;;;;;6.50;5.82;;;;;;;13.75;64.82;95640.97;4972822;28;20042;-85
2021/06/05 02:02:05;;;;;;;9.35;6.32;;;;;;;13.74;64.96;95640.19;4977560;28;20051;-87
2021/06/05 02:04:31;;;;;;;9.30;6.03;;;;;;;13.69;65.01;95639.31;4952067;28;20035;-87
2021/06/05 02:06:56;;;;;;;10.40;5.95;;;;;;;13.71;65.25;95634.63;5000726;28;20039;-86
2021/06/05 02:09:23;;;;;;;12.95;6.38;;;;;;;13.68;65.25;95635.91;4957177;28;20039;-86
2021/06/05 02:11:54;;;;;;;20.75;6.43;;;;;;;13.67;64.91;95634.31;4970479;28;20039;-86
2021/06/05 02:14:25;;;;;;;15.82;6.70;;;;;;;13.67;64.83;95639.53;4949838;28;20070;-86
2021/06/05 02:16:51;;;;;;;6.82;5.40;;;;;;;13.65;65.44;95638.94;4965054;28;20034;-87
2021/06/05 02:19:24;;;;;;;13.07;6.25;;;;;;;13.60;65.32;95628.41;4953964;28;20043;-87
2021/06/05 02:21:50;;;;;;;27.05;6.60;;;;;;;13.62;65.26;95631.56;4951083;28;20038;-87
2021/06/05 02:24:22;;;;;;;14.23;6.10;;;;;;;13.59;65.32;95632.03;4929360;28;20031;-87
2021/06/05 02:26:47;;;;;;;11.00;6.13;;;;;;;13.57;65.21;95633.28;4935157;28;20031;-88
2021/06/05 02:29:13;;;;;;;19.33;6.70;;;;;;;13.54;65.12;95634.56;4968276;28;20498;-87
2021/06/05 02:31:39;;;;;;;17.20;7.35;;;;;;;13.54;64.99;95629.31;4970872;28;20098;-87
2021/06/05 02:34:06;;;;;;;15.75;7.43;;;;;;;13.46;65.07;95646.13;4942859;28;20356;-86
2021/06/05 02:36:32;;;;;;;20.40;7.55;;;;;;;13.37;65.43;95631.84;4959461;28;20549;-87
2021/06/05 02:38:57;;;;;;;11.30;6.40;;;;;;;13.46;65.56;95640.13;4968955;28;20035;-86
2021/06/05 02:41:23;;;;;;;18.60;7.50;;;;;;;13.46;65.33;95637.50;4964124;28;20041;-84
2021/06/05 02:43:50;;;;;;;16.38;7.22;;;;;;;13.43;65.50;95633.53;4984504;28;20518;-85
2021/06/05 02:46:21;;;;;;;18.38;7.38;;;;;;;13.42;65.63;95625.94;4949325;28;20026;-85
2021/06/05 02:48:55;;;;;;;11.05;6.25;;;;;;;13.44;65.46;95626.50;4954960;28;20035;-87
2021/06/05 02:51:23;;;;;;;23.23;11.35;;;;;;;13.39;66.28;95634.22;4956155;28;20047;-87
2021/06/05 02:53:51;;;;;;;18.58;7.97;;;;;;;13.36;66.03;95629.47;4981614;28;20034;-88
2021/06/05 02:56:16;;;;;;;21.00;8.00;;;;;;;13.42;64.67;95623.31;5778547;23;20047;-85
2021/06/05 02:58:42;;;;;;;20.92;7.28;;;;;;;13.48;64.86;95635.44;4970698;29;20043;-85
2021/06/05 03:01:07;;;;;;;12.18;7.55;;;;;;;13.47;64.92;95628.63;4954383;29;20039;-86
2021/06/05 03:03:33;;;;;;;18.60;6.70;;;;;;;13.50;64.72;95628.19;4952394;29;20094;-85
2021/06/05 03:05:59;;;;;;;23.42;8.45;;;;;;;13.54;64.90;95624.09;4959341;28;20090;-85
2021/06/05 03:08:26;;;;;;;15.02;7.40;;;;;;;13.60;65.03;95623.16;4949466;29;20042;-85
2021/06/05 03:10:51;;;;;;;32.13;8.65;;;;;;;13.65;65.17;95625.88;4949327;29;20028;-86
2021/06/05 03:13:18;;;;;;;16.50;6.78;;;;;;;13.77;64.61;95629.25;4975488;28;20082;-85
2021/06/05 03:15:43;;;;;;;22.38;7.03;;;;;;;13.84;63.87;95628.38;4958582;28;20166;-86
2021/06/05 03:18:10;;;;;;;31.73;7.72;;;;;;;13.96;63.32;95626.47;4920039;29;20031;-85
2021/06/05 03:20:38;;;;;;;21.65;8.02;;;;;;;14.08;63.28;95629.84;4975952;28;20185;-85
2021/06/05 03:23:04;;;;;;;25.50;7.78;;;;;;;14.12;62.99;95623.91;4973863;28;20039;-84
2021/06/05 03:25:30;;;;;;;15.05;7.95;;;;;;;14.20;63.23;95633.22;4972362;28;20032;-84
2021/06/05 03:27:57;;;;;;;19.65;8.13;;;;;;;14.26;62.75;95627.06;4957610;29;20593;-84
2021/06/05 03:30:23;;;;;;;32.67;7.85;;;;;;;14.36;62.67;95632.47;4933390;29;20035;-86
2021/06/05 03:32:49;;;;;;;23.58;8.10;;;;;;;14.42;62.02;95634.13;4933087;29;20035;-86
2021/06/05 03:35:14;;;;;;;27.92;8.75;;;;;;;14.54;62.28;95641.19;4993843;23;20047;-84
2021/06/05 03:37:40;;;;;;;15.45;7.20;;;;;;;14.57;61.96;95638.09;4981180;28;20576;-84
2021/06/05 03:40:07;;;;;;;16.25;7.68;;;;;;;14.65;62.37;95640.31;4981474;28;20038;-85
2021/06/05 03:42:33;;;;;;;24.15;7.35;;;;;;;14.81;61.90;95638.75;4993062;28;20148;-86
2021/06/05 03:44:58;;;;;;;13.55;5.75;;;;;;;14.88;61.03;95632.31;4974870;28;20038;-85
2021/06/05 03:47:24;;;;;;;9.68;5.38;;;;;;;14.97;60.76;95633.53;4992390;28;20462;-85
2021/06/05 03:49:52;;;;;;;9.10;5.72;;;;;;;15.06;60.02;95636.50;4995091;28;20145;-86
2021/06/05 03:52:22;;;;;;;8.73;5.88;;;;;;;15.14;60.03;95633.50;4995005;28;20090;-85
2021/06/05 03:57:24;;;;;;;21.77;6.00;;;;;;;15.40;59.27;95632.03;5305657;23;20110;-86
2021/06/05 03:59:52;;;;;;;13.40;6.10;;;;;;;15.51;59.44;95630.34;4953904;28;20039;-86
2021/06/05 04:02:18;;;;;;;15.15;6.85;;;;;;;15.69;59.15;95630.06;4934398;29;20039;-86
2021/06/05 04:04:43;;;;;;;8.57;5.95;;;;;;;17.05;55.00;95631.69;4972319;23;20050;-86
2021/06/05 04:07:09;;;;;;;14.95;7.05;;;;;;;18.88;49.90;95638.50;4960812;28;20042;-86
2021/06/05 04:09:35;;;;;;;21.23;6.32;;;;;;;20.76;45.03;95639.75;4973805;28;20145;-86
2021/06/05 04:12:02;;;;;;;6.75;6.05;;;;;;;22.80;40.08;95627.72;4942426;29;20034;-86
2021/06/05 04:14:27;;;;;;;12.63;5.10;;;;;;;24.74;35.91;95633.66;4927706;28;20063;-86
2021/06/05 04:16:52;;;;;;;14.15;4.55;;;;;;;26.63;32.69;95629.47;4903803;29;20031;-86
2021/06/05 04:19:18;;;;;;;7.15;4.45;;;;;;;28.30;29.71;95623.06;4968720;23;20050;-86
2021/06/05 04:21:43;;;;;;;6.50;4.55;;;;;;;29.69;27.76;95619.19;4996311;28;20049;-86
2021/06/05 04:24:09;;;;;;;10.75;4.22;;;;;;;31.12;25.45;95605.41;4959259;28;20023;-84
2021/06/05 04:26:34;;;;;;;6.85;4.35;;;;;;;32.46;23.97;95607.16;4960692;28;20034;-85
2021/06/05 04:29:00;;;;;;;10.05;4.32;;;;;;;33.35;22.36;95609.72;4975213;28;20034;-86
2021/06/05 04:31:25;;;;;;;8.77;3.78;;;;;;;34.17;21.55;95612.97;4972509;28;20029;-85
2021/06/05 04:33:51;;;;;;;6.85;4.32;;;;;;;34.92;20.86;95608.59;4958380;28;20038;-84
2021/06/05 04:36:22;;;;;;;11.38;4.07;;;;;;;36.19;19.21;95603.59;4958233;28;20041;-86
2021/06/05 04:38:47;;;;;;;;;;;;;;;36.85;18.75;95612.50;4991924;28;20026;-86
2021/06/05 04:41:14;;;;;;;8.27;3.60;;;;;;;37.73;17.07;95604.97;4985418;28;19925;-87
2021/06/05 04:43:40;;;;;;;13.13;3.78;;;;;;;38.46;16.67;95601.81;4990079;28;20489;-87
2021/06/05 04:46:06;;;;;;;11.25;3.17;;;;;;;38.98;16.43;95594.63;4972995;28;20022;-88
2021/06/05 04:48:32;;;;;;;24.00;4.07;;;;;;;39.64;15.61;95586.47;5197530;23;20130;-86
2021/06/05 04:50:58;;;;;;;6.70;3.05;;;;;;;39.67;15.22;95577.50;4970019;28;20313;-86
2021/06/05 04:53:23;;;;;;;9.48;3.63;;;;;;;40.49;14.64;95580.25;5041138;23;20050;-85
2021/06/05 04:55:49;;;;;;;12.65;3.60;;;;;;;40.88;14.24;95586.47;4985736;28;20525;-85
2021/06/05 04:58:16;;;;;;;10.52;3.67;;;;;;;41.26;13.90;95579.72;4977243;28;20043;-85
2021/06/05 05:00:43;;;;;;;9.82;3.50;;;;;;;41.24;14.18;95586.75;4980218;28;20453;-87
2021/06/05 05:03:10;;;;;;;12.05;3.28;;;;;;;41.82;13.69;95590.16;4979463;28;20053;-85
2021/06/05 05:05:36;;;;;;;11.05;3.58;;;;;;;42.20;13.20;95580.56;4930980;28;20107;-85
2021/06/05 05:08:01;;;;;;;9.68;3.53;;;;;;;42.36;13.13;95584.56;4986458;28;20605;-85
2021/06/05 05:10:33;;;;;;;11.32;3.40;;;;;;;42.88;12.51;95586.69;4987585;23;20043;-85
2021/06/05 05:12:59;;;;;;;9.18;3.30;;;;;;;43.69;12.06;95581.38;4957317;28;20049;-85
2021/06/05 05:15:25;;;;;;;8.00;3.50;;;;;;;44.62;11.36;95570.78;4976711;28;20112;-85
2021/06/05 05:17:50;;;;;;;9.93;3.60;;;;;;;45.59;10.98;95570.22;4932127;28;20069;-85
2021/06/05 05:20:19;;;;;;;8.43;3.50;;;;;;;46.20;10.42;95571.72;4964797;28;20051;-86
2021/06/05 05:22:44;;;;;;;15.02;3.47;;;;;;;46.64;9.93;95569.03;4945941;28;20435;-86
2021/06/05 05:25:10;;;;;;;17.05;3.45;;;;;;;47.07;9.72;95570.19;4960758;28;20035;-86
2021/06/05 05:27:36;;;;;;;7.05;3.15;;;;;;;47.32;9.50;95578.28;4977209;23;20061;-84
2021/06/05 05:30:04;;;;;;;9.15;2.83;;;;;;;47.51;9.29;95568.88;4988529;28;20030;-86
2021/06/05 05:32:29;;;;;;;4.93;2.63;;;;;;;48.04;8.97;95560.41;4987007;28;20050;-86
2021/06/05 05:34:54;;;;;;;5.03;2.78;;;;;;;48.54;8.76;95558.25;5031556;23;20540;-84
2021/06/05 05:37:20;;;;;;;10.13;2.60;;;;;;;48.94;8.68;95566.31;4976842;23;20043;-85
2021/06/05 05:39:45;;;;;;;14.77;2.55;;;;;;;49.32;8.23;95569.75;4954101;29;20043;-85
2021/06/05 05:42:23;;;;;;;4.70;2.63;;;;;;;49.63;7.85;95567.41;4936265;29;20037;-86
2021/06/05 05:44:48;;;;;;;4.57;2.33;;;;;;;49.84;7.68;95577.44;4921656;29;20048;-86
2021/06/05 05:47:13;;;;;;;7.28;2.47;;;;;;;50.09;7.72;95572.69;4954035;29;20035;-86
2021/06/05 05:49:42;;;;;;;5.40;2.25;;;;;;;50.24;7.77;95564.41;4922965;29;20027;-87
2021/06/05 05:52:08;;;;;;;9.75;2.65;;;;;;;50.11;7.51;95570.19;4921885;29;20042;-84
2021/06/05 05:54:33;;;;;;;9.75;2.47;;;;;;;50.19;7.31;95557.53;4957189;29;20063;-86
2021/06/05 05:56:59;;;;;;;7.82;2.55;;;;;;;50.39;7.78;95560.44;4933876;29;20058;-87
2021/06/05 05:59:44;;;;;;;8.25;3.13;;;;;;;50.56;7.26;95565.53;4954780;29;20114;-84
2021/06/05 06:04:38;;;;;;;6.28;2.33;;;;;;;50.20;7.74;95559.06;4933238;29;20044;-84
2021/06/05 06:07:04;;;;;;;6.70;2.53;;;;;;;50.54;7.39;95551.41;4933029;29;20217;-83
2021/06/05 06:09:29;;;;;;;4.88;2.35;;;;;;;50.95;7.34;95549.59;4940134;29;20032;-85
2021/06/05 06:11:55;;;;;;;5.75;2.78;;;;;;;51.18;7.27;95553.50;4953113;28;20056;-84
2021/06/05 06:14:20;;;;;;;8.98;2.67;;;;;;;50.20;7.45;95553.53;4911525;29;20070;-84
2021/06/05 06:16:46;;;;;;;7.82;2.25;;;;;;;50.58;7.47;95547.19;4919762;29;20024;-84
2021/06/05 06:19:14;;;;;;;13.20;2.65;;;;;;;50.42;7.48;95548.44;4909741;29;20035;-83
2021/06/05 06:21:41;;;;;;;7.13;2.20;;;;;;;50.18;7.69;95542.19;4914176;29;20088;-84
2021/06/05 06:24:07;;;;;;;6.43;2.20;;;;;;;49.60;8.18;95551.75;4938924;29;20036;-85
2021/06/05 06:26:32;;;;;;;7.35;2.33;;;;;;;49.02;8.05;95541.91;4908045;29;20036;-86
2021/06/05 06:29:07;;;;;;;5.20;2.78;;;;;;;48.78;8.38;95549.31;4906555;29;20110;-84
2021/06/05 06:31:32;;;;;;;21.65;2.50;;;;;;;48.92;8.48;95540.38;4928815;29;20047;-76
2021/06/05 06:33:58;;;;;;;4.13;2.50;;;;;;;47.50;8.86;95544.50;4943092;29;20039;-75
2021/06/05 06:36:23;;;;;;;7.75;2.53;;;;;;;47.04;9.66;95540.81;4938555;29;20423;-75
2021/06/05 06:38:49;;;;;;;9.82;2.88;;;;;;;45.25;10.67;95534.41;4898800;29;20043;-76
2021/06/05 06:41:17;;;;;;;9.52;3.10;;;;;;;44.72;11.08;95531.28;4922193;29;20542;-75
2021/06/05 06:43:43;;;;;;;10.95;3.22;;;;;;;43.59;12.16;95530.34;4910776;29;20046;-76
2021/06/05 06:46:14;;;;;;;11.77;3.97;;;;;;;43.60;11.98;95531.88;4920817;29;20032;-76
2021/06/05 06:48:40;;;;;;;11.18;4.10;;;;;;;43.41;12.35;95531.53;4916871;29;20051;-76
2021/06/05 06:51:05;;;;;;;7.15;4.47;;;;;;;42.64;12.82;95523.09;4924902;29;20503;-76
2021/06/05 06:53:32;;;;;;;7.93;4.88;;;;;;;41.76;13.55;95520.81;4934627;29;20035;-75
2021/06/05 06:55:58;;;;;;;8.32;4.47;;;;;;;40.03;14.91;95522.72;4936410;29;20031;-76
2021/06/05 06:58:26;;;;;;;11.60;4.28;;;;;;;38.56;16.27;95520.22;4941553;29;20059;-76
2021/06/05 07:00:51;;;;;;;11.85;4.82;;;;;;;38.37;16.52;95513.31;4916564;29;20047;-76
2021/06/05 07:03:17;;;;;;;14.43;5.00;;;;;;;37.43;17.48;95516.56;4920879;29;20028;-76
2021/06/05 07:05:42;;;;;;;14.70;4.55;;;;;;;36.62;18.27;95506.31;4901458;29;20036;-77
2021/06/05 07:08:26;;;;;;;6.70;4.30;;;;;;;36.28;18.54;95514.66;4923263;29;20036;-76
2021/06/05 07:10:57;;;;;;;9.02;4.53;;;;;;;35.88;18.90;95506.72;4905085;29;20035;-75
2021/06/05 07:13:23;;;;;;;9.55;4.45;;;;;;;35.33;19.68;95503.97;4941276;29;20035;-74
2021/06/05 07:15:48;;;;;;;17.27;4.40;;;;;;;35.09;20.47;95508.78;4923540;29;20407;-75
2021/06/05 07:18:14;;;;;;;13.80;5.10;;;;;;;34.65;21.12;95503.28;4895941;29;20044;-75
2021/06/05 07:20:39;;;;;;;11.50;5.68;;;;;;;34.12;21.00;95508.03;4909112;29;20032;-74
2021/06/05 07:23:05;;;;;;;14.10;5.35;;;;;;;33.44;22.29;95512.41;4929912;29;20480;-75
2021/06/05 07:25:30;;;;;;;11.63;4.50;;;;;;;33.24;22.97;95509.00;4921603;29;20134;-74
2021/06/05 07:27:56;;;;;;;10.55;5.28;;;;;;;33.00;23.10;95506.63;4906664;29;20035;-74
2021/06/05 07:30:22;;;;;;;14.77;4.00;;;;;;;32.69;23.69;95500.28;4899341;29;20419;-74
2021/06/05 07:32:48;;;;;;;13.75;4.88;;;;;;;32.38;24.27;95505.84;4931061;29;20042;-76
2021/06/05 07:35:13;;;;;;;10.70;4.50;;;;;;;32.16;24.77;95496.53;4923524;29;20040;-76
2021/06/05 07:37:39;;;;;;;11.23;6.90;;;;;;;32.16;24.41;95497.31;4931436;29;20087;-75
2021/06/05 07:40:08;;;;;;;7.80;3.65;;;;;;;32.07;25.01;95496.75;4922433;29;20051;-76
2021/06/05 07:42:36;;;;;;;12.30;4.40;;;;;;;31.76;25.16;95497.59;4921460;29;20422;-75
2021/06/05 07:45:03;;;;;;;16.92;4.68;;;;;;;31.47;24.44;95501.53;4935310;29;20028;-76
2021/06/05 07:47:28;;;;;;;6.90;4.40;;;;;;;31.26;24.89;95495.66;4932796;29;20119;-75
2021/06/05 07:49:54;;;;;;;12.32;3.40;;;;;;;31.20;25.67;95497.03;4923652;29;20043;-76
2021/06/05 07:52:23;;;;;;;11.20;3.10;;;;;;;31.05;24.47;95496.63;4940668;29;20396;-75
2021/06/05 07:54:49;;;;;;;3.55;2.63;;;;;;;30.90;24.83;95497.41;4926728;29;20491;-75
2021/06/05 07:57:15;;;;;;;6.78;2.80;;;;;;;30.63;24.59;95493.66;4915138;29;20091;-75
2021/06/05 07:59:41;;;;;;;9.13;2.47;;;;;;;30.55;26.10;95499.13;4905176;29;20028;-75
2021/06/05 08:02:06;;;;;;;10.43;3.15;;;;;;;30.52;25.40;95494.44;4931041;29;20044;-76
2021/06/05 08:04:32;;;;;;;8.73;2.85;;;;;;;29.99;25.27;95494.47;4922734;29;20070;-75
2021/06/05 08:06:57;;;;;;;7.38;2.97;;;;;;;29.92;26.47;95486.22;4925260;29;20411;-75
2021/06/05 08:09:23;;;;;;;6.85;2.95;;;;;;;29.95;27.14;95490.94;4925879;29;20200;-75
2021/06/05 08:11:48;;;;;;;11.02;3.55;;;;;;;29.85;26.69;95481.44;4918999;29;20040;-75
2021/06/05 08:14:14;;;;;;;5.35;2.85;;;;;;;29.44;25.90;95479.75;4909708;29;20035;-75
2021/06/05 08:16:39;;;;;;;13.38;3.35;;;;;;;29.21;26.48;95479.44;4881670;29;20091;-75
2021/06/05 08:19:07;;;;;;;3.35;2.90;;;;;;;28.60;26.84;95479.28;4932346;29;20056;-75
2021/06/05 08:21:32;;;;;;;5.60;3.40;;;;;;;28.15;27.73;95476.56;4933614;29;20118;-75
2021/06/05 08:23:58;;;;;;;7.90;2.92;;;;;;;28.09;27.48;95475.16;4913311;29;20032;-75
2021/06/05 08:26:24;;;;;;;9.57;3.35;;;;;;;28.14;27.96;95476.84;4897790;29;20118;-74
2021/06/05 08:28:49;;;;;;;5.88;2.60;;;;;;;28.14;27.89;95474.19;4932852;29;20031;-74
2021/06/05 08:31:16;;;;;;;4.13;2.53;;;;;;;27.87;27.02;95465.59;4943217;29;20027;-75
2021/06/05 08:33:41;;;;;;;6.47;2.70;;;;;;;27.60;27.78;95463.38;4906693;29;20067;-76
2021/06/05 08:36:07;;;;;;;3.92;2.63;;;;;;;27.32;27.81;95474.53;4919127;29;20043;-75
2021/06/05 08:38:33;;;;;;;4.65;3.03;;;;;;;27.21;28.88;95468.78;4938828;29;20428;-74
2021/06/05 08:41:12;;;;;;;8.30;2.97;;;;;;;27.11;27.90;95463.00;4920514;29;20076;-74
2021/06/05 08:43:41;;;;;;;8.00;2.60;;;;;;;27.23;28.87;95449.75;4931670;29;20032;-74
2021/06/05 08:46:09;;;;;;;6.97;2.55;;;;;;;27.13;28.12;95450.13;4931163;29;20043;-74
2021/06/05 08:48:35;;;;;;;4.00;2.38;;;;;;;27.07;27.91;95457.53;4901497;29;20032;-73
2021/06/05 08:51:24;;;;;;;4.10;2.60;;;;;;;27.16;29.18;95447.59;4903663;29;20087;-74
2021/06/05 08:53:50;;;;;;;4.40;2.33;;;;;;;27.21;27.60;95446.63;4907680;29;20035;-74
2021/06/05 08:56:24;;;;;;;6.03;2.10;;;;;;;27.20;27.90;95455.75;4932826;29;20397;-74
2021/06/05 08:58:56;;;;;;;2.78;2.47;;;;;;;27.28;28.31;95444.22;4923142;29;20536;-75
2021/06/05 09:01:34;;;;;;;2.65;2.40;;;;;;;27.33;26.67;95438.69;4917732;29;20032;-77
2021/06/05 09:04:06;;;;;;;3.22;2.10;;;;;;;27.38;26.67;95432.41;4896152;29;20076;-78
2021/06/05 09:06:41;;;;;;;10.95;2.33;;;;;;;27.31;27.24;95435.56;4922157;29;20043;-81
2021/06/05 09:09:08;;;;;;;2.13;1.95;;;;;;;27.10;26.15;95434.75;4917057;29;20574;-78
2021/06/05 09:11:33;;;;;;;5.65;2.33;;;;;;;26.89;26.35;95435.44;4925826;29;20486;-78
2021/06/05 09:13:59;;;;;;;4.15;2.40;;;;;;;26.84;26.53;95443.59;4934919;29;20040;-78
2021/06/05 09:16:31;;;;;;;5.35;2.50;;;;;;;26.88;27.45;95428.53;4901637;29;20039;-78
2021/06/05 09:19:06;;;;;;;;;;;;;;;26.85;27.18;95429.19;4904933;29;20032;-78
2021/06/05 09:21:35;;;;;;;8.93;2.25;;;;;;;26.70;25.97;95429.69;4925201;29;19972;-78
2021/06/05 09:24:32;;;;;;;2.22;2.00;;;;;;;26.65;26.73;95424.53;4981144;23;20094;-79
2021/06/05 09:27:05;;;;;;;2.55;1.52;;;;;;;26.63;23.36;95422.16;4967015;28;20108;-80
2021/06/05 09:29:31;;;;;;;12.30;2.40;;;;;;;26.58;26.52;95408.22;4973051;28;20118;-79
2021/06/05 09:32:00;;;;;;;9.25;2.00;;;;;;;26.64;24.18;95406.94;4954789;28;20034;-82
2021/06/05 09:34:31;;;;;;;1.83;1.73;;;;;;;26.62;25.22;95404.59;4969991;28;20038;-78
2021/06/05 09:36:56;;;;;;;13.50;2.47;;;;;;;26.65;26.54;95408.50;4972679;28;20556;-79
2021/06/05 09:39:36;;;;;;;14.55;2.63;;;;;;;26.67;24.86;95405.53;4971343;28;20038;-79
2021/06/05 09:42:01;;;;;;;6.97;2.88;;;;;;;26.64;25.06;95396.28;4981585;28;20030;-77
2021/06/05 09:44:28;;;;;;;6.32;2.75;;;;;;;26.73;25.72;95394.38;4949697;28;20062;-77
2021/06/05 09:47:00;;;;;;;7.57;3.13;;;;;;;26.88;25.61;95396.50;4952320;28;20030;-77
2021/06/05 09:49:32;;;;;;;9.70;2.28;;;;;;;26.76;25.36;95393.72;4972062;28;20034;-78
2021/06/05 09:52:09;;;;;;;6.90;1.70;;;;;;;26.81;25.02;95390.88;4986077;28;20291;-77
2021/06/05 09:54:42;;;;;;;2.33;2.00;;;;;;;26.90;25.28;95386.28;4971731;28;20027;-78
2021/06/05 09:57:29;;;;;;;9.15;2.17;;;;;;;27.05;25.72;95384.22;4979934;28;20125;-79
2021/06/05 10:00:07;;;;;;;9.13;1.90;;;;;;;27.06;24.77;95375.88;4971738;28;20422;-79
2021/06/05 10:02:33;;;;;;;3.28;2.20;;;;;;;27.16;23.90;95377.38;4974763;28;20034;-75
2021/06/05 10:05:29;;;;;;;2.42;1.80;;;;;;;27.07;22.26;95368.66;4973838;28;20046;-76
2021/06/05 10:07:57;;;;;;;6.90;1.85;;;;;;;27.06;22.92;95372.44;4990923;28;20047;-78
2021/06/05 10:10:25;;;;;;;2.05;1.55;;;;;;;27.05;22.30;95368.19;4954477;28;20486;-78
2021/06/05 10:12:50;;;;;;;9.90;1.83;;;;;;;27.09;24.20;95372.56;4967642;28;20069;-78
2021/06/05 10:15:18;;;;;;;6.03;1.95;;;;;;;27.13;22.86;95370.03;4944114;28;20030;-78
2021/06/05 10:17:50;;;;;;;5.32;3.08;;;;;;;27.13;22.03;95370.81;4985692;28;20034;-77
2021/06/05 10:20:19;;;;;;;3.85;1.48;;;;;;;27.18;20.40;95369.84;4968768;28;20113;-77
2021/06/05 10:22:44;;;;;;;9.20;2.03;;;;;;;27.18;19.65;95361.84;4969266;28;20055;-78
2021/06/05 10:25:33;;;;;;;2.28;1.60;;;;;;;27.10;21.85;95365.34;4986646;28;20041;-78
2021/06/05 10:28:04;;;;;;;2.63;1.80;;;;;;;26.90;22.71;95356.94;4974981;28;20046;-77
2021/06/05 10:31:02;;;;;;;3.28;1.90;;;;;;;26.78;25.19;95348.81;4972546;28;20597;-78
2021/06/05 10:33:48;;;;;;;2.22;2.05;;;;;;;26.47;26.23;95375.00;4962800;28;20050;-78
2021/06/05 10:36:18;;;;;;;8.30;2.58;;;;;;;26.15;26.53;95363.75;4988668;28;20067;-78
2021/06/05 10:38:46;;;;;;;9.32;2.90;;;;;;;25.99;27.22;95357.34;4972784;28;20131;-77
2021/06/05 10:41:14;;;;;;;9.05;2.17;;;;;;;26.01;27.00;95352.50;4957404;28;20023;-77
2021/06/05 10:43:40;;;;;;;7.53;2.33;;;;;;;26.14;27.56;95346.19;4958137;28;20582;-77
2021/06/05 10:46:13;;;;;;;4.97;1.90;;;;;;;26.24;26.77;95345.88;4942875;28;20027;-77
2021/06/05 10:48:40;;;;;;;2.80;1.88;;;;;;;26.28;25.21;95336.13;4974717;28;20097;-77
2021/06/05 10:51:25;;;;;;;5.18;1.92;;;;;;;26.39;26.75;95346.47;4965862;28;20490;-77
2021/06/05 10:53:56;;;;;;;7.05;2.47;;;;;;;26.39;26.58;95341.94;4961369;28;20038;-77
2021/06/05 10:56:57;;;;;;;5.18;2.45;;;;;;;26.40;27.36;95332.84;4972615;28;20027;-77
2021/06/05 10:59:41;;;;;;;7.88;2.08;;;;;;;26.33;26.69;95335.94;4970890;28;20035;-77
2021/06/05 11:02:06;;;;;;;6.68;2.28;;;;;;;26.15;26.48;95331.75;4971203;28;20042;-78
2021/06/05 11:04:31;;;;;;;3.60;2.08;;;;;;;26.08;26.00;95325.38;5003518;23;20049;-77
2021/06/05 11:07:03;;;;;;;3.75;1.92;;;;;;;26.03;26.01;95326.31;4991374;28;20042;-77
2021/06/05 11:09:29;;;;;;;3.03;2.83;;;;;;;26.06;26.75;95322.25;4990766;28;20069;-77
2021/06/05 11:12:02;;;;;;;2.10;2.00;;;;;;;26.09;26.90;95319.72;4990101;28;21088;-77
2021/06/05 11:14:43;;;;;;;1.77;1.67;;;;;;;26.17;27.02;95313.56;4981770;28;20034;-77
2021/06/05 11:17:28;;;;;;;2.67;2.23;;;;;;;26.22;27.16;95321.41;4976136;28;20048;-77
2021/06/05 11:20:19;;;;;;;9.50;2.60;;;;;;;26.16;27.01;95312.00;4989928;28;20347;-77
2021/06/05 11:22:48;;;;;;;2.60;1.98;;;;;;;26.11;27.37;95312.19;4987598;28;20129;-76
2021/06/05 11:25:16;;;;;;;3.70;2.40;;;;;;;26.06;26.85;95299.03;4991012;28;20038;-76
2021/06/05 11:27:41;;;;;;;2.15;1.95;;;;;;;25.98;26.41;95308.59;4991217;28;20042;-77
2021/06/05 11:30:22;;;;;;;5.65;2.28;;;;;;;25.97;26.93;95304.38;4987660;28;20494;-77
2021/06/05 11:33:08;;;;;;;6.13;2.05;;;;;;;25.95;28.33;95305.78;5015734;23;20050;-77
2021/06/05 11:35:58;;;;;;;3.63;2.47;;;;;;;25.91;27.54;95307.53;4961483;28;20145;-77
2021/06/05 11:38:23;;;;;;;2.10;1.80;;;;;;;25.96;27.73;95302.03;4947266;28;20054;-77
2021/06/05 11:40:58;;;;;;;2.33;1.88;;;;;;;26.01;27.34;95299.19;4961849;28;20031;-76
2021/06/05 11:43:30;;;;;;;2.03;1.90;;;;;;;26.03;27.95;95296.97;4959988;28;20554;-77
2021/06/05 11:48:41;;;;;;;5.60;2.15;;;;;;;26.06;27.19;95283.03;4992383;23;20055;-77
2021/06/05 11:51:21;;;;;;;3.75;2.10;;;;;;;26.07;27.69;95287.28;4978786;28;20121;-77
2021/06/05 11:53:51;;;;;;;3.10;2.10;;;;;;;26.09;27.80;95279.75;4973824;28;20034;-77
2021/06/05 11:56:33;;;;;;;2.22;2.03;;;;;;;26.04;26.39;95282.59;4960793;28;20031;-77
2021/06/05 11:59:09;;;;;;;;;;;;;;;26.05;27.50;95278.81;4975672;28;20034;-77